sensor_id;sensor_type;location;lat;lon;timestamp;temperature;humidity
16838;DHT22;19510;54.486;9.046;2023-09-19T00:01:33;17.40;99.90
16838;DHT22;19510;54.486;9.046;2023-09-19T00:03:59;17.40;99.90
16838;DHT22;19510;54.486;9.046;2023-09-19T00:06:28;17.40;99.90
16838;DHT22;19510;54.486;9.046;2023-09-19T00:08:58;17.40;99.90
16838;DHT22;19510;54.486;9.046;2023-09-19T00:11:26;17.40;99.90
16838;DHT22;19510;54.486;9.046;2023-09-19T00:13:52;17.40;99.90
16838;DHT22;19510;54.486;9.046;2023-09-19T00:16:20;17.40;99.90
16838;DHT22;19510;54.486;9.046;2023-09-19T00:18:46;17.40;99.90
16838;DHT22;19510;54.486;9.046;2023-09-19T00:21:14;17.40;99.90
16838;DHT22;19510;54.486;9.046;2023-09-19T00:23:40;17.40;99.90
16838;DHT22;19510;54.486;9.046;2023-09-19T00:26:07;17.40;99.90
16838;DHT22;19510;54.486;9.046;2023-09-19T00:28:33;17.40;99.90
16838;DHT22;19510;54.486;9.046;2023-09-19T00:31:01;17.30;99.90
16838;DHT22;19510;54.486;9.046;2023-09-19T00:33:28;17.20;99.90
16838;DHT22;19510;54.486;9.046;2023-09-19T00:35:56;17.10;99.90
16838;DHT22;19510;54.486;9.046;2023-09-19T00:38:27;17.20;99.90
16838;DHT22;19510;54.486;9.046;2023-09-19T00:40:54;17.20;99.90
16838;DHT22;19510;54.486;9.046;2023-09-19T00:43:20;17.20;99.90
16838;DHT22;19510;54.486;9.046;2023-09-19T00:45:51;17.20;99.90
16838;DHT22;19510;54.486;9.046;2023-09-19T00:48:16;17.20;99.90
16838;DHT22;19510;54.486;9.046;2023-09-19T00:50:45;17.20;99.90
16838;DHT22;19510;54.486;9.046;2023-09-19T00:53:15;17.20;99.90
16838;DHT22;19510;54.486;9.046;2023-09-19T00:55:44;17.20;99.90
16838;DHT22;19510;54.486;9.046;2023-09-19T00:58:11;17.20;99.90
16838;DHT22;19510;54.486;9.046;2023-09-19T01:00:37;17.10;99.90
16838;DHT22;19510;54.486;9.046;2023-09-19T01:03:04;17.10;99.90
16838;DHT22;19510;54.486;9.046;2023-09-19T01:05:33;17.20;99.90
16838;DHT22;19510;54.486;9.046;2023-09-19T01:07:59;17.20;99.90
16838;DHT22;19510;54.486;9.046;2023-09-19T01:10:25;17.30;99.90
16838;DHT22;19510;54.486;9.046;2023-09-19T01:13:03;17.30;99.90
16838;DHT22;19510;54.486;9.046;2023-09-19T01:15:51;17.30;99.90
16838;DHT22;19510;54.486;9.046;2023-09-19T01:23:48;17.20;99.90
16838;DHT22;19510;54.486;9.046;2023-09-19T01:31:40;17.20;99.90
16838;DHT22;19510;54.486;9.046;2023-09-19T01:34:10;17.20;99.90
16838;DHT22;19510;54.486;9.046;2023-09-19T01:36:37;17.20;99.90
16838;DHT22;19510;54.486;9.046;2023-09-19T01:39:11;17.10;99.90
16838;DHT22;19510;54.486;9.046;2023-09-19T01:44:09;17.10;99.90
16838;DHT22;19510;54.486;9.046;2023-09-19T01:46:40;17.00;99.90
16838;DHT22;19510;54.486;9.046;2023-09-19T01:49:27;17.00;99.90
16838;DHT22;19510;54.486;9.046;2023-09-19T01:52:09;17.00;99.90
16838;DHT22;19510;54.486;9.046;2023-09-19T01:54:52;17.00;99.90
16838;DHT22;19510;54.486;9.046;2023-09-19T01:57:46;16.90;99.90
16838;DHT22;19510;54.486;9.046;2023-09-19T02:00:14;16.90;99.90
16838;DHT22;19510;54.486;9.046;2023-09-19T02:02:44;16.80;99.90
16838;DHT22;19510;54.486;9.046;2023-09-19T02:05:12;16.80;99.90
16838;DHT22;19510;54.486;9.046;2023-09-19T02:07:38;16.80;99.90
16838;DHT22;19510;54.486;9.046;2023-09-19T02:10:07;16.80;99.90
16838;DHT22;19510;54.486;9.046;2023-09-19T02:12:33;16.70;99.90
16838;DHT22;19510;54.486;9.046;2023-09-19T02:15:01;16.70;99.90
16838;DHT22;19510;54.486;9.046;2023-09-19T02:17:27;16.70;99.90
16838;DHT22;19510;54.486;9.046;2023-09-19T02:19:56;16.70;99.90
16838;DHT22;19510;54.486;9.046;2023-09-19T02:22:22;16.70;99.90
16838;DHT22;19510;54.486;9.046;2023-09-19T02:24:48;16.70;99.90
16838;DHT22;19510;54.486;9.046;2023-09-19T02:27:14;16.60;99.90
16838;DHT22;19510;54.486;9.046;2023-09-19T02:29:42;16.10;99.90
16838;DHT22;19510;54.486;9.046;2023-09-19T02:32:08;15.70;99.90
16838;DHT22;19510;54.486;9.046;2023-09-19T02:34:36;15.40;99.90
16838;DHT22;19510;54.486;9.046;2023-09-19T02:37:06;15.30;99.90
16838;DHT22;19510;54.486;9.046;2023-09-19T02:39:32;15.30;99.90
16838;DHT22;19510;54.486;9.046;2023-09-19T02:41:58;15.30;99.90
16838;DHT22;19510;54.486;9.046;2023-09-19T02:44:26;15.30;99.90
16838;DHT22;19510;54.486;9.046;2023-09-19T02:46:52;15.40;99.90
16838;DHT22;19510;54.486;9.046;2023-09-19T02:49:18;15.40;99.90
16838;DHT22;19510;54.486;9.046;2023-09-19T02:51:46;15.50;99.90
16838;DHT22;19510;54.486;9.046;2023-09-19T02:54:13;15.40;99.90
16838;DHT22;19510;54.486;9.046;2023-09-19T02:56:39;15.40;99.90
16838;DHT22;19510;54.486;9.046;2023-09-19T02:59:04;15.40;99.90
16838;DHT22;19510;54.486;9.046;2023-09-19T03:01:31;15.40;99.90
16838;DHT22;19510;54.486;9.046;2023-09-19T03:03:57;15.40;99.90
16838;DHT22;19510;54.486;9.046;2023-09-19T03:06:25;15.40;99.90
16838;DHT22;19510;54.486;9.046;2023-09-19T03:08:51;15.40;99.90
16838;DHT22;19510;54.486;9.046;2023-09-19T03:11:17;15.50;99.90
16838;DHT22;19510;54.486;9.046;2023-09-19T03:13:51;15.40;99.90
16838;DHT22;19510;54.486;9.046;2023-09-19T03:16:17;15.30;99.90
16838;DHT22;19510;54.486;9.046;2023-09-19T03:18:44;15.30;99.90
16838;DHT22;19510;54.486;9.046;2023-09-19T03:21:10;15.30;99.90
16838;DHT22;19510;54.486;9.046;2023-09-19T03:23:36;15.40;99.90
16838;DHT22;19510;54.486;9.046;2023-09-19T03:26:01;15.40;99.90
16838;DHT22;19510;54.486;9.046;2023-09-19T03:28:33;15.40;99.90
16838;DHT22;19510;54.486;9.046;2023-09-19T03:31:01;15.40;99.90
16838;DHT22;19510;54.486;9.046;2023-09-19T03:33:27;15.50;99.90
16838;DHT22;19510;54.486;9.046;2023-09-19T03:35:53;15.50;99.90
16838;DHT22;19510;54.486;9.046;2023-09-19T03:38:19;15.50;99.90
16838;DHT22;19510;54.486;9.046;2023-09-19T03:40:45;15.60;99.90
16838;DHT22;19510;54.486;9.046;2023-09-19T03:43:11;15.60;99.90
16838;DHT22;19510;54.486;9.046;2023-09-19T03:45:36;15.60;99.90
16838;DHT22;19510;54.486;9.046;2023-09-19T03:48:09;15.70;99.90
16838;DHT22;19510;54.486;9.046;2023-09-19T03:50:35;15.70;99.90
16838;DHT22;19510;54.486;9.046;2023-09-19T03:53:01;15.80;99.90
16838;DHT22;19510;54.486;9.046;2023-09-19T03:55:27;15.90;99.90
16838;DHT22;19510;54.486;9.046;2023-09-19T03:57:55;15.90;99.90
16838;DHT22;19510;54.486;9.046;2023-09-19T04:00:21;16.00;99.90
16838;DHT22;19510;54.486;9.046;2023-09-19T04:02:51;16.00;99.90
16838;DHT22;19510;54.486;9.046;2023-09-19T04:05:17;16.10;99.90
16838;DHT22;19510;54.486;9.046;2023-09-19T04:07:43;16.10;99.90
16838;DHT22;19510;54.486;9.046;2023-09-19T04:10:09;16.10;99.90
16838;DHT22;19510;54.486;9.046;2023-09-19T04:12:37;16.10;99.90
16838;DHT22;19510;54.486;9.046;2023-09-19T04:15:05;16.10;99.90
16838;DHT22;19510;54.486;9.046;2023-09-19T04:17:34;16.10;99.90
16838;DHT22;19510;54.486;9.046;2023-09-19T04:20:00;16.00;99.90
16838;DHT22;19510;54.486;9.046;2023-09-19T04:22:26;16.00;99.90
16838;DHT22;19510;54.486;9.046;2023-09-19T04:24:51;16.00;99.90
16838;DHT22;19510;54.486;9.046;2023-09-19T04:27:17;15.90;99.90
16838;DHT22;19510;54.486;9.046;2023-09-19T04:29:45;15.90;99.90
16838;DHT22;19510;54.486;9.046;2023-09-19T04:32:10;15.90;99.90
16838;DHT22;19510;54.486;9.046;2023-09-19T04:34:38;15.90;99.90
16838;DHT22;19510;54.486;9.046;2023-09-19T04:37:04;16.00;99.90
16838;DHT22;19510;54.486;9.046;2023-09-19T04:39:30;15.90;99.90
16838;DHT22;19510;54.486;9.046;2023-09-19T04:41:55;15.90;99.90
16838;DHT22;19510;54.486;9.046;2023-09-19T04:44:22;15.90;99.90
16838;DHT22;19510;54.486;9.046;2023-09-19T04:46:50;15.90;99.90
16838;DHT22;19510;54.486;9.046;2023-09-19T04:49:16;15.90;99.90
16838;DHT22;19510;54.486;9.046;2023-09-19T04:51:42;15.90;99.90
16838;DHT22;19510;54.486;9.046;2023-09-19T04:54:08;15.90;99.90
16838;DHT22;19510;54.486;9.046;2023-09-19T04:56:34;15.80;99.90
16838;DHT22;19510;54.486;9.046;2023-09-19T04:59:00;15.80;99.90
16838;DHT22;19510;54.486;9.046;2023-09-19T05:01:26;15.80;99.90
16838;DHT22;19510;54.486;9.046;2023-09-19T05:03:52;15.80;99.90
16838;DHT22;19510;54.486;9.046;2023-09-19T05:06:21;15.70;99.90
16838;DHT22;19510;54.486;9.046;2023-09-19T05:08:48;15.70;99.90
16838;DHT22;19510;54.486;9.046;2023-09-19T05:11:17;15.60;99.90
16838;DHT22;19510;54.486;9.046;2023-09-19T05:13:44;15.60;99.90
16838;DHT22;19510;54.486;9.046;2023-09-19T05:16:09;15.50;99.90
16838;DHT22;19510;54.486;9.046;2023-09-19T05:18:36;15.40;99.90
16838;DHT22;19510;54.486;9.046;2023-09-19T05:21:07;15.30;99.90
16838;DHT22;19510;54.486;9.046;2023-09-19T05:23:33;15.20;99.90
16838;DHT22;19510;54.486;9.046;2023-09-19T05:25:59;15.10;99.90
16838;DHT22;19510;54.486;9.046;2023-09-19T05:28:25;15.00;99.90
16838;DHT22;19510;54.486;9.046;2023-09-19T05:30:53;15.00;99.90
16838;DHT22;19510;54.486;9.046;2023-09-19T05:33:19;15.00;99.90
16838;DHT22;19510;54.486;9.046;2023-09-19T05:35:45;14.90;99.90
16838;DHT22;19510;54.486;9.046;2023-09-19T05:38:12;14.90;99.90
16838;DHT22;19510;54.486;9.046;2023-09-19T05:40:39;14.90;99.90
16838;DHT22;19510;54.486;9.046;2023-09-19T05:43:09;14.90;99.90
16838;DHT22;19510;54.486;9.046;2023-09-19T05:45:35;14.80;99.90
16838;DHT22;19510;54.486;9.046;2023-09-19T05:48:09;14.70;99.90
16838;DHT22;19510;54.486;9.046;2023-09-19T05:50:37;14.60;99.90
16838;DHT22;19510;54.486;9.046;2023-09-19T05:53:02;14.60;99.90
16838;DHT22;19510;54.486;9.046;2023-09-19T05:55:30;14.60;99.90
16838;DHT22;19510;54.486;9.046;2023-09-19T05:57:58;14.60;99.90
16838;DHT22;19510;54.486;9.046;2023-09-19T06:00:25;14.60;99.90
16838;DHT22;19510;54.486;9.046;2023-09-19T06:02:53;14.60;99.90
16838;DHT22;19510;54.486;9.046;2023-09-19T06:05:20;14.60;99.90
16838;DHT22;19510;54.486;9.046;2023-09-19T06:07:46;14.70;99.90
16838;DHT22;19510;54.486;9.046;2023-09-19T06:10:14;14.70;99.90
16838;DHT22;19510;54.486;9.046;2023-09-19T06:12:43;14.70;99.90
16838;DHT22;19510;54.486;9.046;2023-09-19T06:15:10;14.70;99.90
16838;DHT22;19510;54.486;9.046;2023-09-19T06:17:46;14.70;99.90
16838;DHT22;19510;54.486;9.046;2023-09-19T06:20:12;14.70;99.90
16838;DHT22;19510;54.486;9.046;2023-09-19T06:22:41;14.60;99.90
16838;DHT22;19510;54.486;9.046;2023-09-19T06:25:11;14.70;99.90
16838;DHT22;19510;54.486;9.046;2023-09-19T06:27:38;14.70;99.90
16838;DHT22;19510;54.486;9.046;2023-09-19T06:30:08;14.80;99.90
16838;DHT22;19510;54.486;9.046;2023-09-19T06:32:34;14.80;99.90
16838;DHT22;19510;54.486;9.046;2023-09-19T06:35:00;14.80;99.90
16838;DHT22;19510;54.486;9.046;2023-09-19T06:37:29;14.90;99.90
16838;DHT22;19510;54.486;9.046;2023-09-19T06:39:55;14.90;99.90
16838;DHT22;19510;54.486;9.046;2023-09-19T06:42:23;14.90;99.90
16838;DHT22;19510;54.486;9.046;2023-09-19T06:44:53;15.10;99.90
16838;DHT22;19510;54.486;9.046;2023-09-19T06:47:19;15.00;99.90
16838;DHT22;19510;54.486;9.046;2023-09-19T06:49:44;15.10;99.90
16838;DHT22;19510;54.486;9.046;2023-09-19T06:52:10;15.20;99.90
16838;DHT22;19510;54.486;9.046;2023-09-19T06:54:36;15.20;99.90
16838;DHT22;19510;54.486;9.046;2023-09-19T06:57:05;15.20;99.90
16838;DHT22;19510;54.486;9.046;2023-09-19T06:59:31;15.20;99.90
16838;DHT22;19510;54.486;9.046;2023-09-19T07:01:58;15.10;99.90
16838;DHT22;19510;54.486;9.046;2023-09-19T07:04:24;15.10;99.90
16838;DHT22;19510;54.486;9.046;2023-09-19T07:06:50;15.10;99.90
16838;DHT22;19510;54.486;9.046;2023-09-19T07:09:16;15.10;99.90
16838;DHT22;19510;54.486;9.046;2023-09-19T07:11:43;15.20;99.90
16838;DHT22;19510;54.486;9.046;2023-09-19T07:14:11;15.20;99.90
16838;DHT22;19510;54.486;9.046;2023-09-19T07:16:40;15.30;99.90
16838;DHT22;19510;54.486;9.046;2023-09-19T07:19:08;15.40;99.90
16838;DHT22;19510;54.486;9.046;2023-09-19T07:21:33;15.40;99.90
16838;DHT22;19510;54.486;9.046;2023-09-19T07:24:01;15.40;99.90
16838;DHT22;19510;54.486;9.046;2023-09-19T07:26:28;15.40;99.90
16838;DHT22;19510;54.486;9.046;2023-09-19T07:28:54;15.40;99.90
16838;DHT22;19510;54.486;9.046;2023-09-19T07:31:20;15.40;99.90
16838;DHT22;19510;54.486;9.046;2023-09-19T07:33:48;15.40;99.90
16838;DHT22;19510;54.486;9.046;2023-09-19T07:36:17;15.40;99.90
16838;DHT22;19510;54.486;9.046;2023-09-19T07:38:42;15.40;99.90
16838;DHT22;19510;54.486;9.046;2023-09-19T07:41:10;15.40;99.90
16838;DHT22;19510;54.486;9.046;2023-09-19T07:43:36;15.40;99.90
16838;DHT22;19510;54.486;9.046;2023-09-19T07:46:07;15.50;99.90
16838;DHT22;19510;54.486;9.046;2023-09-19T07:48:35;15.50;99.90
16838;DHT22;19510;54.486;9.046;2023-09-19T07:51:06;15.50;99.90
16838;DHT22;19510;54.486;9.046;2023-09-19T07:53:33;15.60;99.90
16838;DHT22;19510;54.486;9.046;2023-09-19T07:56:07;15.60;99.90
16838;DHT22;19510;54.486;9.046;2023-09-19T07:58:33;15.60;99.90
16838;DHT22;19510;54.486;9.046;2023-09-19T08:01:08;15.60;99.90
16838;DHT22;19510;54.486;9.046;2023-09-19T08:03:36;15.60;99.90
16838;DHT22;19510;54.486;9.046;2023-09-19T08:06:11;15.60;99.90
16838;DHT22;19510;54.486;9.046;2023-09-19T08:08:39;15.60;99.90
16838;DHT22;19510;54.486;9.046;2023-09-19T08:11:06;15.60;99.90
16838;DHT22;19510;54.486;9.046;2023-09-19T08:13:47;15.50;99.90
16838;DHT22;19510;54.486;9.046;2023-09-19T08:16:15;15.50;99.90
16838;DHT22;19510;54.486;9.046;2023-09-19T08:18:47;15.50;99.90
16838;DHT22;19510;54.486;9.046;2023-09-19T08:21:13;15.40;99.90
16838;DHT22;19510;54.486;9.046;2023-09-19T08:23:41;15.40;99.90
16838;DHT22;19510;54.486;9.046;2023-09-19T08:26:10;15.40;99.90
16838;DHT22;19510;54.486;9.046;2023-09-19T08:28:36;15.00;99.90
16838;DHT22;19510;54.486;9.046;2023-09-19T08:31:02;14.80;99.90
16838;DHT22;19510;54.486;9.046;2023-09-19T08:33:34;14.80;99.90
16838;DHT22;19510;54.486;9.046;2023-09-19T08:36:01;14.70;99.90
16838;DHT22;19510;54.486;9.046;2023-09-19T08:38:33;14.70;99.90
16838;DHT22;19510;54.486;9.046;2023-09-19T08:41:04;14.80;99.90
16838;DHT22;19510;54.486;9.046;2023-09-19T08:43:30;14.90;99.90
16838;DHT22;19510;54.486;9.046;2023-09-19T08:48:32;15.00;99.90
16838;DHT22;19510;54.486;9.046;2023-09-19T08:51:10;15.00;99.90
16838;DHT22;19510;54.486;9.046;2023-09-19T08:54:03;15.00;99.90
16838;DHT22;19510;54.486;9.046;2023-09-19T08:56:33;15.10;99.90
16838;DHT22;19510;54.486;9.046;2023-09-19T08:59:05;15.10;99.90
16838;DHT22;19510;54.486;9.046;2023-09-19T09:01:34;15.10;99.90
16838;DHT22;19510;54.486;9.046;2023-09-19T09:04:04;15.10;99.90
16838;DHT22;19510;54.486;9.046;2023-09-19T09:06:38;15.10;99.90
16838;DHT22;19510;54.486;9.046;2023-09-19T09:09:05;15.10;99.90
16838;DHT22;19510;54.486;9.046;2023-09-19T09:11:33;15.00;99.90
16838;DHT22;19510;54.486;9.046;2023-09-19T09:13:59;14.80;99.90
16838;DHT22;19510;54.486;9.046;2023-09-19T09:16:25;14.70;99.90
16838;DHT22;19510;54.486;9.046;2023-09-19T09:18:51;14.70;99.90
16838;DHT22;19510;54.486;9.046;2023-09-19T09:21:18;14.70;99.90
16838;DHT22;19510;54.486;9.046;2023-09-19T09:23:44;14.70;99.90
16838;DHT22;19510;54.486;9.046;2023-09-19T09:26:12;14.80;99.90
16838;DHT22;19510;54.486;9.046;2023-09-19T09:28:44;14.80;99.90
16838;DHT22;19510;54.486;9.046;2023-09-19T09:31:30;15.00;99.90
16838;DHT22;19510;54.486;9.046;2023-09-19T09:33:57;15.10;99.90
16838;DHT22;19510;54.486;9.046;2023-09-19T09:36:42;15.20;99.90
16838;DHT22;19510;54.486;9.046;2023-09-19T09:39:13;15.20;99.90
16838;DHT22;19510;54.486;9.046;2023-09-19T09:41:50;15.40;99.90
16838;DHT22;19510;54.486;9.046;2023-09-19T09:44:19;15.50;99.90
16838;DHT22;19510;54.486;9.046;2023-09-19T09:46:48;15.50;99.90
16838;DHT22;19510;54.486;9.046;2023-09-19T09:49:24;15.50;99.90
16838;DHT22;19510;54.486;9.046;2023-09-19T09:52:06;15.50;99.90
16838;DHT22;19510;54.486;9.046;2023-09-19T09:54:34;15.50;99.90
16838;DHT22;19510;54.486;9.046;2023-09-19T09:57:10;15.50;99.90
16838;DHT22;19510;54.486;9.046;2023-09-19T10:00:09;15.60;99.90
16838;DHT22;19510;54.486;9.046;2023-09-19T10:02:38;15.70;99.90
16838;DHT22;19510;54.486;9.046;2023-09-19T10:05:20;15.80;99.90
16838;DHT22;19510;54.486;9.046;2023-09-19T10:07:49;15.90;99.90
16838;DHT22;19510;54.486;9.046;2023-09-19T10:10:37;16.10;99.90
16838;DHT22;19510;54.486;9.046;2023-09-19T10:13:25;16.10;99.90
16838;DHT22;19510;54.486;9.046;2023-09-19T10:15:55;16.20;99.90
16838;DHT22;19510;54.486;9.046;2023-09-19T10:18:26;16.20;99.90
16838;DHT22;19510;54.486;9.046;2023-09-19T10:20:53;16.20;99.90
16838;DHT22;19510;54.486;9.046;2023-09-19T10:23:21;16.20;99.90
16838;DHT22;19510;54.486;9.046;2023-09-19T10:25:57;16.30;99.90
16838;DHT22;19510;54.486;9.046;2023-09-19T10:28:27;16.50;99.90
16838;DHT22;19510;54.486;9.046;2023-09-19T10:30:55;16.50;99.90
16838;DHT22;19510;54.486;9.046;2023-09-19T10:33:22;16.60;99.90
16838;DHT22;19510;54.486;9.046;2023-09-19T10:35:51;16.60;99.90
16838;DHT22;19510;54.486;9.046;2023-09-19T10:38:18;16.60;99.90
16838;DHT22;19510;54.486;9.046;2023-09-19T10:40:50;16.60;99.90
16838;DHT22;19510;54.486;9.046;2023-09-19T10:43:17;16.60;99.90
16838;DHT22;19510;54.486;9.046;2023-09-19T10:45:50;16.50;99.90
16838;DHT22;19510;54.486;9.046;2023-09-19T10:48:20;16.50;99.90
16838;DHT22;19510;54.486;9.046;2023-09-19T10:53:42;16.30;99.90
16838;DHT22;19510;54.486;9.046;2023-09-19T10:56:26;16.20;99.90
16838;DHT22;19510;54.486;9.046;2023-09-19T10:59:08;16.10;99.90
16838;DHT22;19510;54.486;9.046;2023-09-19T11:04:40;16.00;99.90
16838;DHT22;19510;54.486;9.046;2023-09-19T11:07:12;16.00;99.90
16838;DHT22;19510;54.486;9.046;2023-09-19T11:12:12;16.10;99.90
16838;DHT22;19510;54.486;9.046;2023-09-19T11:14:39;16.10;99.90
16838;DHT22;19510;54.486;9.046;2023-09-19T11:25:45;16.10;99.90
16838;DHT22;19510;54.486;9.046;2023-09-19T11:28:27;16.20;99.90
16838;DHT22;19510;54.486;9.046;2023-09-19T11:30:53;16.20;99.90
16838;DHT22;19510;54.486;9.046;2023-09-19T11:33:29;16.30;99.90
16838;DHT22;19510;54.486;9.046;2023-09-19T11:43:53;16.60;99.90
16838;DHT22;19510;54.486;9.046;2023-09-19T11:46:24;16.70;99.90
16838;DHT22;19510;54.486;9.046;2023-09-19T11:48:53;16.70;99.90
16838;DHT22;19510;54.486;9.046;2023-09-19T11:51:26;16.70;99.90
16838;DHT22;19510;54.486;9.046;2023-09-19T11:53:56;16.80;99.90
16838;DHT22;19510;54.486;9.046;2023-09-19T11:56:25;16.80;99.90
16838;DHT22;19510;54.486;9.046;2023-09-19T11:58:54;16.70;99.90
16838;DHT22;19510;54.486;9.046;2023-09-19T12:01:44;16.80;99.90
16838;DHT22;19510;54.486;9.046;2023-09-19T12:04:17;16.80;99.90
16838;DHT22;19510;54.486;9.046;2023-09-19T12:06:56;16.90;99.90
16838;DHT22;19510;54.486;9.046;2023-09-19T12:09:22;16.90;99.90
16838;DHT22;19510;54.486;9.046;2023-09-19T12:11:51;16.90;99.90
16838;DHT22;19510;54.486;9.046;2023-09-19T12:14:24;17.00;99.90
16838;DHT22;19510;54.486;9.046;2023-09-19T12:16:56;17.00;99.90
16838;DHT22;19510;54.486;9.046;2023-09-19T12:19:23;16.90;99.90
16838;DHT22;19510;54.486;9.046;2023-09-19T12:22:00;16.90;99.90
16838;DHT22;19510;54.486;9.046;2023-09-19T12:24:30;16.80;99.90
16838;DHT22;19510;54.486;9.046;2023-09-19T12:27:04;16.90;99.90
16838;DHT22;19510;54.486;9.046;2023-09-19T12:29:47;16.90;99.90
16838;DHT22;19510;54.486;9.046;2023-09-19T12:32:17;16.90;99.90
16838;DHT22;19510;54.486;9.046;2023-09-19T12:34:51;16.90;99.90
16838;DHT22;19510;54.486;9.046;2023-09-19T12:37:18;16.90;99.90
16838;DHT22;19510;54.486;9.046;2023-09-19T12:39:51;16.90;99.90
16838;DHT22;19510;54.486;9.046;2023-09-19T12:42:26;16.90;99.90
16838;DHT22;19510;54.486;9.046;2023-09-19T12:44:58;16.90;99.90
16838;DHT22;19510;54.486;9.046;2023-09-19T12:47:27;16.90;99.90
16838;DHT22;19510;54.486;9.046;2023-09-19T12:52:42;17.00;99.90
16838;DHT22;19510;54.486;9.046;2023-09-19T12:55:23;17.00;99.90
16838;DHT22;19510;54.486;9.046;2023-09-19T13:00:21;17.10;99.90
16838;DHT22;19510;54.486;9.046;2023-09-19T13:08:28;17.10;99.90
16838;DHT22;19510;54.486;9.046;2023-09-19T13:11:17;17.10;99.90
16838;DHT22;19510;54.486;9.046;2023-09-19T13:16:29;17.20;99.90
16838;DHT22;19510;54.486;9.046;2023-09-19T13:18:57;17.20;99.90
16838;DHT22;19510;54.486;9.046;2023-09-19T13:21:33;17.20;99.90
16838;DHT22;19510;54.486;9.046;2023-09-19T13:24:24;17.20;99.90
16838;DHT22;19510;54.486;9.046;2023-09-19T13:26:54;17.20;99.90
16838;DHT22;19510;54.486;9.046;2023-09-19T13:29:20;17.20;99.90
16838;DHT22;19510;54.486;9.046;2023-09-19T13:31:47;17.10;99.90
16838;DHT22;19510;54.486;9.046;2023-09-19T13:34:13;17.10;99.90
16838;DHT22;19510;54.486;9.046;2023-09-19T13:36:41;17.10;99.90
16838;DHT22;19510;54.486;9.046;2023-09-19T13:39:07;17.10;99.90
16838;DHT22;19510;54.486;9.046;2023-09-19T13:41:35;17.10;99.90
16838;DHT22;19510;54.486;9.046;2023-09-19T13:44:03;17.10;99.90
16838;DHT22;19510;54.486;9.046;2023-09-19T13:46:30;17.10;99.90
16838;DHT22;19510;54.486;9.046;2023-09-19T13:48:59;17.10;99.90
16838;DHT22;19510;54.486;9.046;2023-09-19T13:51:29;17.20;99.90
16838;DHT22;19510;54.486;9.046;2023-09-19T13:53:55;17.10;99.90
16838;DHT22;19510;54.486;9.046;2023-09-19T13:56:21;17.10;99.90
16838;DHT22;19510;54.486;9.046;2023-09-19T13:58:47;17.10;99.90
16838;DHT22;19510;54.486;9.046;2023-09-19T14:01:13;17.10;99.90
16838;DHT22;19510;54.486;9.046;2023-09-19T14:03:39;17.20;99.90
16838;DHT22;19510;54.486;9.046;2023-09-19T14:06:05;17.10;99.90
16838;DHT22;19510;54.486;9.046;2023-09-19T14:08:31;17.10;99.90
16838;DHT22;19510;54.486;9.046;2023-09-19T14:11:05;17.10;99.90
16838;DHT22;19510;54.486;9.046;2023-09-19T14:13:31;17.10;99.90
16838;DHT22;19510;54.486;9.046;2023-09-19T14:15:56;17.10;99.90
16838;DHT22;19510;54.486;9.046;2023-09-19T14:18:23;17.10;99.90
16838;DHT22;19510;54.486;9.046;2023-09-19T14:20:51;17.10;99.90
16838;DHT22;19510;54.486;9.046;2023-09-19T14:23:18;17.10;99.90
16838;DHT22;19510;54.486;9.046;2023-09-19T14:25:44;17.10;99.90
16838;DHT22;19510;54.486;9.046;2023-09-19T14:28:10;17.10;99.90
16838;DHT22;19510;54.486;9.046;2023-09-19T14:30:35;17.20;99.90
16838;DHT22;19510;54.486;9.046;2023-09-19T14:33:03;17.20;99.90
16838;DHT22;19510;54.486;9.046;2023-09-19T14:35:37;17.20;99.90
16838;DHT22;19510;54.486;9.046;2023-09-19T14:38:02;17.20;99.90
16838;DHT22;19510;54.486;9.046;2023-09-19T14:40:28;17.20;99.90
16838;DHT22;19510;54.486;9.046;2023-09-19T14:42:56;17.20;99.90
16838;DHT22;19510;54.486;9.046;2023-09-19T14:45:22;17.30;99.90
16838;DHT22;19510;54.486;9.046;2023-09-19T14:47:50;17.30;99.90
16838;DHT22;19510;54.486;9.046;2023-09-19T14:50:18;17.40;99.90
16838;DHT22;19510;54.486;9.046;2023-09-19T14:52:43;17.30;99.90
16838;DHT22;19510;54.486;9.046;2023-09-19T14:55:11;17.30;99.90
16838;DHT22;19510;54.486;9.046;2023-09-19T14:57:40;17.40;99.90
16838;DHT22;19510;54.486;9.046;2023-09-19T15:00:06;17.40;99.90
16838;DHT22;19510;54.486;9.046;2023-09-19T15:02:40;17.40;99.90
16838;DHT22;19510;54.486;9.046;2023-09-19T15:05:06;17.40;99.90
16838;DHT22;19510;54.486;9.046;2023-09-19T15:07:35;17.40;99.90
16838;DHT22;19510;54.486;9.046;2023-09-19T15:10:04;17.40;99.90
16838;DHT22;19510;54.486;9.046;2023-09-19T15:12:32;17.30;99.90
16838;DHT22;19510;54.486;9.046;2023-09-19T15:15:01;17.30;99.90
16838;DHT22;19510;54.486;9.046;2023-09-19T15:17:27;17.30;99.90
16838;DHT22;19510;54.486;9.046;2023-09-19T15:19:53;17.30;99.90
16838;DHT22;19510;54.486;9.046;2023-09-19T15:22:19;17.30;99.90
16838;DHT22;19510;54.486;9.046;2023-09-19T15:24:46;17.40;99.90
16838;DHT22;19510;54.486;9.046;2023-09-19T15:27:11;17.30;99.90
16838;DHT22;19510;54.486;9.046;2023-09-19T15:29:39;17.40;99.90
16838;DHT22;19510;54.486;9.046;2023-09-19T15:32:05;17.40;99.90
16838;DHT22;19510;54.486;9.046;2023-09-19T15:34:35;17.50;99.90
16838;DHT22;19510;54.486;9.046;2023-09-19T15:37:03;17.60;99.90
16838;DHT22;19510;54.486;9.046;2023-09-19T15:39:32;17.60;99.90
16838;DHT22;19510;54.486;9.046;2023-09-19T15:42:02;17.60;99.90
16838;DHT22;19510;54.486;9.046;2023-09-19T15:44:28;17.60;99.90
16838;DHT22;19510;54.486;9.046;2023-09-19T15:46:54;17.60;99.90
16838;DHT22;19510;54.486;9.046;2023-09-19T15:49:23;17.60;99.90
16838;DHT22;19510;54.486;9.046;2023-09-19T15:51:49;17.60;99.90
16838;DHT22;19510;54.486;9.046;2023-09-19T15:54:15;17.60;99.90
16838;DHT22;19510;54.486;9.046;2023-09-19T15:56:45;17.50;99.90
16838;DHT22;19510;54.486;9.046;2023-09-19T15:59:12;17.60;99.90
16838;DHT22;19510;54.486;9.046;2023-09-19T16:01:39;17.60;99.90
16838;DHT22;19510;54.486;9.046;2023-09-19T16:04:11;17.60;99.90
16838;DHT22;19510;54.486;9.046;2023-09-19T16:06:42;17.60;99.90
16838;DHT22;19510;54.486;9.046;2023-09-19T16:09:08;17.60;99.90
16838;DHT22;19510;54.486;9.046;2023-09-19T16:11:36;17.70;99.90
16838;DHT22;19510;54.486;9.046;2023-09-19T16:14:02;17.70;99.90
16838;DHT22;19510;54.486;9.046;2023-09-19T16:16:28;17.70;99.90
16838;DHT22;19510;54.486;9.046;2023-09-19T16:18:59;17.70;99.90
16838;DHT22;19510;54.486;9.046;2023-09-19T16:21:30;17.70;99.90
16838;DHT22;19510;54.486;9.046;2023-09-19T16:23:58;17.70;99.90
16838;DHT22;19510;54.486;9.046;2023-09-19T16:26:24;17.70;99.90
16838;DHT22;19510;54.486;9.046;2023-09-19T16:28:52;17.70;99.90
16838;DHT22;19510;54.486;9.046;2023-09-19T16:31:18;17.70;99.90
16838;DHT22;19510;54.486;9.046;2023-09-19T16:33:46;17.70;99.90
16838;DHT22;19510;54.486;9.046;2023-09-19T16:36:16;17.70;99.90